Terminal Aerodrome Forecast
Issued by NWS

Home | Current Version | Previous Version | Text Only | Print | Product List | Glossary On
Versions: 1 2 3 4 5 6 7 8 9 10 11 12 13 14 15 16 17
000
FTUS41 KPBZ 280300 AAA
TAFZZV
TAF AMD
KZZV 280319Z 2803/2824 27003KT 4SM -SHRA BR BKN023 OVC060
      TEMPO 2803/2807 3SM -SHRA OVC012
     FM280700 27004KT 4SM -RA BR OVC007
     FM281500 33006KT P6SM OVC020=

USA.gov is the U.S. government's official web portal to all federal, state and local government web resources and services.